createdAt,value
2023-03-21T00:00:25.942Z,0.00
2023-03-21T00:01:25.876Z,0.00
2023-03-21T00:02:25.924Z,0.00
2023-03-21T00:03:25.895Z,0.00
2023-03-21T00:04:25.962Z,0.00
2023-03-21T00:05:25.927Z,0.00
2023-03-21T00:06:25.865Z,0.00
2023-03-21T00:07:25.810Z,0.00
2023-03-21T00:08:25.799Z,0.00
2023-03-21T00:09:25.784Z,0.00
2023-03-21T00:10:39.040Z,0.00
2023-03-21T00:11:25.780Z,0.00
2023-03-21T00:12:25.758Z,0.00
2023-03-21T00:13:25.735Z,0.00
2023-03-21T00:14:25.749Z,0.00
2023-03-21T00:15:40.021Z,0.00
2023-03-21T00:16:28.574Z,0.00
2023-03-21T00:17:25.699Z,0.00
2023-03-21T00:18:25.674Z,0.00
2023-03-21T00:19:25.722Z,0.00
2023-03-21T00:20:25.664Z,0.00
2023-03-21T00:21:59.274Z,0.00
2023-03-21T00:22:25.634Z,0.00
2023-03-21T00:23:25.595Z,0.00
2023-03-21T00:24:25.601Z,0.00
2023-03-21T00:25:25.588Z,0.00
2023-03-21T00:26:25.601Z,0.00
2023-03-21T00:28:25.575Z,0.00
2023-03-21T00:29:25.536Z,0.00
2023-03-21T00:30:25.510Z,0.00
2023-03-21T00:31:25.483Z,0.00
2023-03-21T00:32:25.520Z,0.00
2023-03-21T00:33:25.476Z,0.00
2023-03-21T00:34:36.530Z,0.00
2023-03-21T00:35:57.558Z,0.00
2023-03-21T00:36:26.374Z,0.00
2023-03-21T00:37:25.405Z,0.00
2023-03-21T00:38:25.458Z,0.00
2023-03-21T00:39:25.382Z,0.00
2023-03-21T00:40:31.139Z,0.00
2023-03-21T00:41:40.945Z,0.00
2023-03-21T00:42:25.405Z,0.00
2023-03-21T00:43:25.332Z,0.00
2023-03-21T00:44:25.350Z,0.00
2023-03-21T00:45:25.309Z,0.00
2023-03-21T00:46:29.956Z,0.00
2023-03-21T00:47:25.974Z,0.00
2023-03-21T00:48:25.443Z,0.00
2023-03-21T00:49:25.257Z,0.00
2023-03-21T00:50:25.265Z,0.00
2023-03-21T00:51:25.225Z,0.00
2023-03-21T00:52:39.891Z,0.00
2023-03-21T00:53:25.274Z,0.00
2023-03-21T00:54:25.222Z,0.00
2023-03-21T00:55:25.193Z,0.00
2023-03-21T00:56:25.170Z,0.00
2023-03-21T00:57:38.092Z,0.00
2023-03-21T00:58:25.160Z,0.00
2023-03-21T00:59:25.137Z,0.00
2023-03-21T01:00:25.136Z,0.00
2023-03-21T01:01:25.087Z,0.00
2023-03-21T01:02:25.124Z,0.00
2023-03-21T01:03:25.726Z,0.00
2023-03-21T01:04:25.100Z,0.00
2023-03-21T01:05:25.095Z,0.00
2023-03-21T01:06:25.049Z,0.00
2023-03-21T01:07:25.024Z,0.00
2023-03-21T01:08:31.030Z,0.00
2023-03-21T01:09:25.010Z,0.00
2023-03-21T01:10:25.002Z,0.00
2023-03-21T01:11:25.023Z,0.00
2023-03-21T01:12:25.008Z,0.00
2023-03-21T01:13:24.938Z,0.00
2023-03-21T01:14:24.985Z,0.00
2023-03-21T01:15:24.930Z,0.00
2023-03-21T01:16:24.992Z,0.00
2023-03-21T01:17:24.885Z,0.00
2023-03-21T01:18:24.901Z,0.00
2023-03-21T01:19:30.859Z,0.00
2023-03-21T01:20:24.871Z,0.00
2023-03-21T01:21:24.862Z,0.00
2023-03-21T01:22:24.818Z,0.00
2023-03-21T01:23:24.853Z,0.00
2023-03-21T01:24:24.816Z,0.00
2023-03-21T01:25:24.793Z,0.00
2023-03-21T01:26:24.774Z,0.00
2023-03-21T01:27:24.812Z,0.00
2023-03-21T01:28:24.751Z,0.00
2023-03-21T01:29:24.770Z,0.00
2023-03-21T01:30:24.990Z,0.00
2023-03-21T01:31:24.750Z,0.00
2023-03-21T01:32:24.758Z,0.00
2023-03-21T01:33:24.725Z,0.00
2023-03-21T01:34:24.659Z,0.00
2023-03-21T01:35:25.034Z,0.00
2023-03-21T01:36:25.496Z,0.00
2023-03-21T01:37:24.705Z,0.00
2023-03-21T01:38:24.632Z,0.00
2023-03-21T01:39:24.619Z,0.00
2023-03-21T01:40:24.572Z,0.00
2023-03-21T01:41:33.529Z,0.00
2023-03-21T01:42:24.570Z,0.00
2023-03-21T01:43:24.573Z,0.00
2023-03-21T01:44:24.536Z,0.00
2023-03-21T01:45:24.534Z,0.00
2023-03-21T01:46:24.502Z,0.00
2023-03-21T01:47:24.536Z,0.00
2023-03-21T01:48:24.482Z,0.00
2023-03-21T01:49:24.505Z,0.00
2023-03-21T01:50:24.463Z,0.00
2023-03-21T01:51:24.464Z,0.00
2023-03-21T01:52:35.801Z,0.00
2023-03-21T01:53:24.447Z,0.00
2023-03-21T01:54:24.407Z,0.00
2023-03-21T01:55:24.429Z,0.00
2023-03-21T01:56:24.375Z,0.00
2023-03-21T01:57:29.969Z,0.00
2023-03-21T01:58:24.366Z,0.00
2023-03-21T01:59:24.372Z,0.00
2023-03-21T02:00:24.312Z,0.00
2023-03-21T02:01:24.353Z,0.00
2023-03-21T02:02:24.291Z,0.00
2023-03-21T02:03:35.219Z,0.00
2023-03-21T02:04:24.315Z,0.00
2023-03-21T02:05:24.301Z,0.00
2023-03-21T02:06:24.264Z,0.00
2023-03-21T02:07:24.243Z,0.00
2023-03-21T02:08:36.875Z,0.00
2023-03-21T02:09:24.244Z,0.00
2023-03-21T02:10:24.207Z,0.00
2023-03-21T02:11:24.248Z,0.00
2023-03-21T02:12:24.155Z,0.00
2023-03-21T02:13:24.171Z,0.00
2023-03-21T02:14:29.285Z,0.00
2023-03-21T02:15:24.146Z,0.00
2023-03-21T02:16:24.153Z,0.00
2023-03-21T02:17:24.135Z,0.00
2023-03-21T02:18:24.106Z,0.00
2023-03-21T02:19:31.883Z,0.00
2023-03-21T02:20:24.078Z,0.00
2023-03-21T02:21:24.174Z,0.00
2023-03-21T02:22:24.045Z,0.00
2023-03-21T02:23:24.059Z,0.00
2023-03-21T02:24:24.005Z,0.00
2023-03-21T02:25:24.043Z,0.00
2023-03-21T02:26:26.468Z,0.00
2023-03-21T02:27:24.014Z,0.00
2023-03-21T02:28:23.952Z,0.00
2023-03-21T02:29:23.959Z,0.00
2023-03-21T02:30:45.626Z,0.00
2023-03-21T02:31:23.988Z,0.00
2023-03-21T02:32:36.526Z,0.00
2023-03-21T02:33:23.928Z,0.00
2023-03-21T02:34:23.917Z,0.00
2023-03-21T02:35:23.902Z,0.00
2023-03-21T02:36:23.915Z,0.00
2023-03-21T02:37:36.672Z,0.00
2023-03-21T02:38:23.838Z,0.00
2023-03-21T02:39:23.829Z,0.00
2023-03-21T02:40:23.825Z,0.00
2023-03-21T02:41:27.473Z,0.00
2023-03-21T02:42:23.787Z,0.00
2023-03-21T02:43:24.183Z,0.00
2023-03-21T02:44:23.750Z,0.00
2023-03-21T02:45:23.791Z,0.00
2023-03-21T02:46:28.302Z,0.00
2023-03-21T02:47:23.770Z,0.00
2023-03-21T02:48:28.088Z,0.00
2023-03-21T02:49:23.754Z,0.00
2023-03-21T02:50:23.751Z,0.00
2023-03-21T02:51:23.694Z,0.00
2023-03-21T02:52:37.426Z,0.00
2023-03-21T02:53:23.656Z,0.00
2023-03-21T02:54:34.964Z,0.00
2023-03-21T02:55:23.690Z,0.00
2023-03-21T02:56:23.598Z,0.00
2023-03-21T02:57:27.023Z,0.00
2023-03-21T02:58:23.571Z,0.00
2023-03-21T02:59:23.580Z,0.00
2023-03-21T03:00:23.602Z,0.00
2023-03-21T03:01:23.568Z,0.00
2023-03-21T03:02:23.542Z,0.00
2023-03-21T03:03:33.396Z,0.00
2023-03-21T03:04:23.515Z,0.00
2023-03-21T03:05:23.564Z,0.00
2023-03-21T03:06:23.499Z,0.00
2023-03-21T03:07:23.478Z,0.00
2023-03-21T03:08:32.462Z,0.00
2023-03-21T03:09:23.453Z,0.00
2023-03-21T03:10:23.404Z,0.00
2023-03-21T03:11:23.475Z,0.00
2023-03-21T03:12:23.391Z,0.00
2023-03-21T03:13:23.410Z,0.00
2023-03-21T03:15:23.423Z,0.00
2023-03-21T03:16:23.361Z,0.00
2023-03-21T03:17:23.366Z,0.00
2023-03-21T03:18:23.325Z,0.00
2023-03-21T03:19:23.313Z,0.00
2023-03-21T03:20:23.300Z,0.00
2023-03-21T03:21:23.325Z,0.00
2023-03-21T03:22:23.264Z,0.00
2023-03-21T03:23:23.270Z,0.00
2023-03-21T03:24:23.258Z,0.00
2023-03-21T03:25:36.037Z,0.00
2023-03-21T03:26:23.248Z,0.00
2023-03-21T03:27:23.233Z,0.00
2023-03-21T03:28:23.203Z,0.00
2023-03-21T03:29:23.186Z,0.00
2023-03-21T03:30:27.340Z,0.00
2023-03-21T03:31:23.237Z,0.00
2023-03-21T03:32:23.171Z,0.00
2023-03-21T03:33:23.139Z,0.00
2023-03-21T03:34:23.102Z,0.00
2023-03-21T03:35:23.100Z,0.00
2023-03-21T03:36:31.742Z,0.00
2023-03-21T03:37:23.126Z,0.00
2023-03-21T03:38:23.046Z,0.00
2023-03-21T03:39:23.100Z,0.00
2023-03-21T03:40:23.019Z,0.00
2023-03-21T03:41:23.064Z,0.00
2023-03-21T03:42:28.378Z,0.00
2023-03-21T03:43:23.025Z,0.00
2023-03-21T03:44:23.006Z,0.00
2023-03-21T03:45:22.987Z,0.00
2023-03-21T03:46:23.010Z,0.00
2023-03-21T03:47:32.206Z,0.00
2023-03-21T03:48:22.983Z,0.00
2023-03-21T03:49:23.045Z,0.00
2023-03-21T03:50:22.906Z,0.00
2023-03-21T03:51:22.911Z,0.00
2023-03-21T03:52:22.861Z,0.00
2023-03-21T03:53:22.874Z,0.00
2023-03-21T03:54:22.839Z,0.00
2023-03-21T03:55:22.873Z,0.00
2023-03-21T03:56:22.832Z,0.00
2023-03-21T03:57:22.837Z,0.00
2023-03-21T03:58:24.748Z,0.00
2023-03-21T03:59:22.808Z,0.00
2023-03-21T04:00:22.777Z,0.00
2023-03-21T04:01:22.781Z,0.00
2023-03-21T04:02:22.769Z,0.00
2023-03-21T04:03:22.804Z,0.00
2023-03-21T04:04:22.897Z,0.00
2023-03-21T04:05:22.748Z,0.00
2023-03-21T04:06:22.721Z,0.00
2023-03-21T04:07:22.682Z,0.00
2023-03-21T04:08:22.663Z,0.00
2023-03-21T04:09:34.004Z,0.00
2023-03-21T04:10:22.655Z,0.00
2023-03-21T04:11:22.661Z,0.00
2023-03-21T04:12:22.621Z,0.00
2023-03-21T04:13:22.615Z,0.00
2023-03-21T04:14:22.609Z,0.00
2023-03-21T04:15:22.670Z,0.00
2023-03-21T04:16:22.608Z,0.00
2023-03-21T04:17:22.571Z,0.00
2023-03-21T04:18:22.552Z,0.00
2023-03-21T04:19:22.547Z,0.00
2023-03-21T04:20:34.187Z,0.00
2023-03-21T04:21:22.534Z,0.00
2023-03-21T04:22:22.486Z,0.00
2023-03-21T04:23:22.496Z,0.00
2023-03-21T04:24:22.461Z,0.00
2023-03-21T04:25:32.830Z,0.00
2023-03-21T04:26:22.440Z,0.00
2023-03-21T04:27:22.473Z,0.00
2023-03-21T04:28:22.399Z,0.00
2023-03-21T04:29:22.428Z,0.00
2023-03-21T04:30:22.428Z,0.00
2023-03-21T04:31:26.010Z,0.00
2023-03-21T04:32:22.390Z,0.00
2023-03-21T04:33:22.358Z,0.00
2023-03-21T04:34:22.418Z,0.00
2023-03-21T04:35:22.348Z,0.00
2023-03-21T04:36:22.302Z,0.00
2023-03-21T04:37:22.335Z,0.00
2023-03-21T04:38:22.275Z,0.00
2023-03-21T04:39:22.309Z,0.00
2023-03-21T04:40:22.261Z,0.00
2023-03-21T04:41:22.262Z,0.00
2023-03-21T04:42:22.244Z,0.00
2023-03-21T04:43:22.237Z,0.00
2023-03-21T04:44:22.213Z,0.00
2023-03-21T04:45:22.215Z,0.00
2023-03-21T04:46:22.177Z,0.00
2023-03-21T04:47:22.189Z,0.00
2023-03-21T04:48:22.169Z,0.00
2023-03-21T04:49:22.179Z,0.00
2023-03-21T04:50:22.137Z,0.00
2023-03-21T04:51:22.130Z,0.00
2023-03-21T04:52:23.300Z,0.00
2023-03-21T04:53:22.097Z,0.00
2023-03-21T04:54:22.083Z,0.00
2023-03-21T04:55:22.119Z,0.00
2023-03-21T04:56:22.050Z,0.00
2023-03-21T04:57:22.048Z,0.00
2023-03-21T04:58:22.009Z,0.00
2023-03-21T04:59:22.054Z,0.00
2023-03-21T05:00:21.997Z,0.00
2023-03-21T05:01:22.053Z,0.00
2023-03-21T05:02:21.960Z,0.00
2023-03-21T05:03:22.072Z,0.00
2023-03-21T05:04:22.050Z,0.00
2023-03-21T05:05:21.938Z,0.00
2023-03-21T05:06:21.924Z,0.00
2023-03-21T05:07:21.950Z,0.00
2023-03-21T05:08:21.869Z,0.00
2023-03-21T05:09:21.926Z,0.00
2023-03-21T05:10:21.850Z,0.00
2023-03-21T05:11:21.862Z,0.00
2023-03-21T05:12:21.850Z,0.00
2023-03-21T05:13:21.848Z,0.00
2023-03-21T05:14:21.813Z,0.00
2023-03-21T05:15:21.812Z,0.00
2023-03-21T05:16:21.796Z,0.00
2023-03-21T05:17:21.799Z,0.00
2023-03-21T05:18:21.751Z,4.00
2023-03-21T05:19:21.776Z,0.00
2023-03-21T05:20:21.735Z,0.00
2023-03-21T05:21:21.735Z,4.00
2023-03-21T05:22:21.729Z,4.00
2023-03-21T05:23:21.701Z,4.00
2023-03-21T05:24:21.664Z,4.00
2023-03-21T05:25:21.693Z,4.00
2023-03-21T05:26:21.708Z,4.00
2023-03-21T05:27:21.677Z,8.00
2023-03-21T05:28:21.620Z,4.00
2023-03-21T05:29:21.668Z,4.00
2023-03-21T05:30:21.609Z,8.00
2023-03-21T05:31:21.715Z,8.00
2023-03-21T05:32:21.634Z,8.00
2023-03-21T05:33:21.587Z,12.00
2023-03-21T05:34:21.566Z,12.00
2023-03-21T05:35:21.519Z,12.00
2023-03-21T05:36:22.261Z,12.00
2023-03-21T05:37:21.517Z,12.00
2023-03-21T05:38:21.540Z,12.00
2023-03-21T05:39:21.503Z,16.00
2023-03-21T05:40:21.516Z,16.00
2023-03-21T05:41:21.461Z,20.00
2023-03-21T05:42:21.482Z,16.00
2023-03-21T05:43:21.450Z,16.00
2023-03-21T05:44:21.442Z,20.00
2023-03-21T05:45:21.399Z,20.00
2023-03-21T05:46:21.447Z,20.00
2023-03-21T05:47:21.374Z,24.00
2023-03-21T05:48:21.436Z,28.00
2023-03-21T05:49:21.340Z,28.00
2023-03-21T05:50:21.374Z,28.00
2023-03-21T05:51:21.400Z,32.00
2023-03-21T05:52:21.336Z,32.00
2023-03-21T05:53:23.159Z,36.00
2023-03-21T05:54:21.315Z,36.00
2023-03-21T05:55:21.268Z,40.00
2023-03-21T05:56:21.309Z,40.00
2023-03-21T05:57:21.246Z,36.00
2023-03-21T05:58:21.250Z,40.00
2023-03-21T05:59:21.222Z,40.00
2023-03-21T06:00:21.232Z,44.00
2023-03-21T06:01:21.210Z,44.00
2023-03-21T06:02:21.246Z,48.00
2023-03-21T06:03:21.228Z,52.00
2023-03-21T06:04:21.237Z,56.00
2023-03-21T06:05:21.153Z,56.00
2023-03-21T06:06:21.156Z,60.00
2023-03-21T06:07:21.148Z,64.00
2023-03-21T06:08:21.136Z,64.00
2023-03-21T06:09:21.104Z,72.00
2023-03-21T06:10:21.129Z,80.00
2023-03-21T06:11:21.060Z,80.00
2023-03-21T06:12:21.091Z,88.00
2023-03-21T06:13:21.056Z,88.00
2023-03-21T06:14:21.068Z,92.00
2023-03-21T06:15:21.037Z,100.00
2023-03-21T06:16:21.097Z,104.00
2023-03-21T06:17:21.018Z,112.00
2023-03-21T06:18:21.019Z,120.00
2023-03-21T06:19:20.966Z,124.00
2023-03-21T06:20:20.976Z,132.00
2023-03-21T06:21:20.921Z,136.00
2023-03-21T06:22:20.980Z,116.00
2023-03-21T06:23:20.906Z,116.00
2023-03-21T06:24:20.923Z,124.00
2023-03-21T06:25:20.911Z,116.00
2023-03-21T06:26:20.913Z,108.00
2023-03-21T06:27:20.864Z,104.00
2023-03-21T06:28:20.880Z,104.00
2023-03-21T06:29:20.857Z,104.00
2023-03-21T06:30:20.862Z,108.00
2023-03-21T06:31:20.866Z,112.00
2023-03-21T06:32:20.824Z,116.00
2023-03-21T06:33:20.781Z,124.00
2023-03-21T06:34:20.800Z,136.00
2023-03-21T06:35:20.759Z,148.00
2023-03-21T06:36:20.772Z,156.00
2023-03-21T06:37:20.753Z,164.00
2023-03-21T06:38:20.749Z,168.00
2023-03-21T06:39:21.709Z,168.00
2023-03-21T06:40:20.736Z,172.00
2023-03-21T06:41:20.712Z,204.00
2023-03-21T06:42:21.221Z,216.00
2023-03-21T06:43:20.656Z,200.00
2023-03-21T06:44:20.660Z,172.00
2023-03-21T06:45:20.619Z,148.00
2023-03-21T06:46:20.739Z,128.00
2023-03-21T06:47:20.601Z,128.00
2023-03-21T06:48:20.656Z,128.00
2023-03-21T06:49:20.575Z,128.00
2023-03-21T06:50:20.597Z,128.00
2023-03-21T06:51:20.532Z,128.00
2023-03-21T06:52:20.574Z,132.00
2023-03-21T06:53:20.558Z,136.00
2023-03-21T06:54:20.607Z,136.00
2023-03-21T06:55:20.499Z,140.00
2023-03-21T06:56:20.519Z,156.00
2023-03-21T06:57:20.495Z,168.00
2023-03-21T06:58:20.523Z,168.00
2023-03-21T06:59:20.425Z,172.00
2023-03-21T07:00:20.477Z,172.00
2023-03-21T07:01:20.430Z,172.00
2023-03-21T07:02:20.440Z,168.00
2023-03-21T07:03:20.398Z,168.00
2023-03-21T07:04:20.437Z,176.00
2023-03-21T07:05:20.410Z,180.00
2023-03-21T07:06:20.382Z,192.00
2023-03-21T07:07:20.356Z,200.00
2023-03-21T07:08:20.349Z,212.00
2023-03-21T07:09:20.322Z,228.00
2023-03-21T07:10:20.357Z,284.00
2023-03-21T07:11:20.279Z,268.00
2023-03-21T07:12:20.305Z,256.00
2023-03-21T07:13:20.292Z,248.00
2023-03-21T07:14:20.297Z,252.00
2023-03-21T07:15:20.246Z,256.00
2023-03-21T07:16:20.306Z,276.00
2023-03-21T07:17:20.224Z,300.00
2023-03-21T07:18:20.231Z,380.00
2023-03-21T07:19:20.198Z,380.00
2023-03-21T07:20:20.239Z,452.00
2023-03-21T07:21:20.170Z,360.00
2023-03-21T07:22:20.200Z,308.00
2023-03-21T07:23:20.144Z,304.00
2023-03-21T07:24:20.180Z,324.00
2023-03-21T07:25:20.181Z,336.00
2023-03-21T07:26:20.122Z,364.00
2023-03-21T07:27:20.099Z,380.00
2023-03-21T07:28:20.101Z,408.00
2023-03-21T07:29:20.066Z,528.00
2023-03-21T07:30:20.090Z,784.00
2023-03-21T07:31:20.113Z,1060.00
2023-03-21T07:32:20.049Z,1192.00
2023-03-21T07:33:20.064Z,1212.00
2023-03-21T07:34:20.005Z,1244.00
2023-03-21T07:35:20.004Z,1304.00
2023-03-21T07:36:20.093Z,1340.00
2023-03-21T07:37:19.959Z,956.00
2023-03-21T07:38:19.971Z,1040.00
2023-03-21T07:39:19.922Z,1020.00
2023-03-21T07:40:19.966Z,960.00
2023-03-21T07:41:19.991Z,936.00
2023-03-21T07:42:19.939Z,1236.00
2023-03-21T07:43:19.997Z,1160.00
2023-03-21T07:44:20.727Z,1220.00
2023-03-21T07:45:21.103Z,1228.00
2023-03-21T07:46:19.942Z,1244.00
2023-03-21T07:47:19.808Z,1324.00
2023-03-21T07:48:19.897Z,1072.00
2023-03-21T07:49:19.802Z,892.00
2023-03-21T07:50:19.814Z,812.00
2023-03-21T07:51:20.240Z,812.00
2023-03-21T07:52:19.787Z,1052.00
2023-03-21T07:53:19.760Z,1124.00
2023-03-21T07:54:19.790Z,1188.00
2023-03-21T07:55:19.711Z,956.00
2023-03-21T07:56:19.734Z,900.00
2023-03-21T07:57:19.694Z,840.00
2023-03-21T07:58:19.698Z,1008.00
2023-03-21T07:59:19.691Z,816.00
2023-03-21T08:00:19.662Z,516.00
2023-03-21T08:01:19.637Z,732.00
2023-03-21T08:02:19.778Z,556.00
2023-03-21T08:03:19.680Z,400.00
2023-03-21T08:04:19.620Z,360.00
2023-03-21T08:05:19.586Z,344.00
2023-03-21T08:06:19.592Z,344.00
2023-03-21T08:07:19.588Z,344.00
2023-03-21T08:08:19.586Z,348.00
2023-03-21T08:09:19.545Z,356.00
2023-03-21T08:10:19.538Z,368.00
2023-03-21T08:11:19.509Z,384.00
2023-03-21T08:12:19.532Z,400.00
2023-03-21T08:13:19.464Z,420.00
2023-03-21T08:14:19.480Z,432.00
2023-03-21T08:15:19.461Z,468.00
2023-03-21T08:16:19.462Z,528.00
2023-03-21T08:17:19.432Z,572.00
2023-03-21T08:18:19.422Z,544.00
2023-03-21T08:19:19.413Z,692.00
2023-03-21T08:20:19.405Z,608.00
2023-03-21T08:21:19.371Z,700.00
2023-03-21T08:22:19.380Z,784.00
2023-03-21T08:23:19.350Z,800.00
2023-03-21T08:24:19.381Z,776.00
2023-03-21T08:25:19.411Z,828.00
2023-03-21T08:26:19.386Z,664.00
2023-03-21T08:27:19.276Z,552.00
2023-03-21T08:28:19.318Z,692.00
2023-03-21T08:29:19.264Z,652.00
2023-03-21T08:30:19.359Z,628.00
2023-03-21T08:31:19.251Z,600.00
2023-03-21T08:32:19.238Z,520.00
2023-03-21T08:33:19.216Z,496.00
2023-03-21T08:34:19.207Z,500.00
2023-03-21T08:35:19.255Z,500.00
2023-03-21T08:36:19.238Z,484.00
2023-03-21T08:37:19.166Z,476.00
2023-03-21T08:38:19.167Z,476.00
2023-03-21T08:39:19.155Z,440.00
2023-03-21T08:40:19.199Z,392.00
2023-03-21T08:41:19.127Z,368.00
2023-03-21T08:42:19.120Z,332.00
2023-03-21T08:43:19.071Z,308.00
2023-03-21T08:44:19.085Z,288.00
2023-03-21T08:45:19.036Z,276.00
2023-03-21T08:46:19.176Z,268.00
2023-03-21T08:47:19.044Z,260.00
2023-03-21T08:48:19.249Z,256.00
2023-03-21T08:49:18.998Z,240.00
2023-03-21T08:50:19.014Z,232.00
2023-03-21T08:51:18.993Z,228.00
2023-03-21T08:52:18.993Z,216.00
2023-03-21T08:53:18.952Z,212.00
2023-03-21T08:54:18.943Z,204.00
2023-03-21T08:55:18.928Z,200.00
2023-03-21T08:56:18.933Z,196.00
2023-03-21T08:57:18.912Z,196.00
2023-03-21T08:58:18.924Z,196.00
2023-03-21T08:59:18.877Z,196.00
2023-03-21T09:00:18.892Z,200.00
2023-03-21T09:01:18.908Z,204.00
2023-03-21T09:02:18.874Z,212.00
2023-03-21T09:03:18.846Z,216.00
2023-03-21T09:04:19.016Z,228.00
2023-03-21T09:05:18.787Z,240.00
2023-03-21T09:06:18.796Z,244.00
2023-03-21T09:07:18.774Z,252.00
2023-03-21T09:08:18.797Z,264.00
2023-03-21T09:09:18.725Z,264.00
2023-03-21T09:10:21.564Z,264.00
2023-03-21T09:11:18.707Z,268.00
2023-03-21T09:12:18.730Z,268.00
2023-03-21T09:13:18.686Z,264.00
2023-03-21T09:14:19.332Z,256.00
2023-03-21T09:15:18.660Z,252.00
2023-03-21T09:16:18.723Z,244.00
2023-03-21T09:17:21.110Z,236.00
2023-03-21T09:18:18.641Z,232.00
2023-03-21T09:19:18.608Z,224.00
2023-03-21T09:20:18.641Z,216.00
2023-03-21T09:21:18.673Z,212.00
2023-03-21T09:22:18.595Z,208.00
2023-03-21T09:23:18.564Z,208.00
2023-03-21T09:24:18.594Z,200.00
2023-03-21T09:25:18.518Z,200.00
2023-03-21T09:26:18.546Z,196.00
2023-03-21T09:27:18.486Z,192.00
2023-03-21T09:28:18.509Z,192.00
2023-03-21T09:29:18.506Z,192.00
2023-03-21T09:30:18.474Z,188.00
2023-03-21T09:31:18.508Z,184.00
2023-03-21T09:32:18.429Z,184.00
2023-03-21T09:33:18.442Z,180.00
2023-03-21T09:34:18.410Z,180.00
2023-03-21T09:35:18.420Z,176.00
2023-03-21T09:36:18.524Z,176.00
2023-03-21T09:37:18.365Z,176.00
2023-03-21T09:38:18.351Z,176.00
2023-03-21T09:39:18.381Z,176.00
2023-03-21T09:40:18.328Z,180.00
2023-03-21T09:41:18.340Z,180.00
2023-03-21T09:42:18.327Z,184.00
2023-03-21T09:43:18.320Z,188.00
2023-03-21T09:44:18.257Z,188.00
2023-03-21T09:45:18.271Z,188.00
2023-03-21T09:46:18.501Z,192.00
2023-03-21T09:47:18.238Z,196.00
2023-03-21T09:48:18.283Z,196.00
2023-03-21T09:49:18.237Z,204.00
2023-03-21T09:50:18.186Z,204.00
2023-03-21T09:51:18.196Z,208.00
2023-03-21T09:52:18.208Z,208.00
2023-03-21T09:53:18.250Z,212.00
2023-03-21T09:54:18.135Z,216.00
2023-03-21T09:55:18.146Z,216.00
2023-03-21T09:56:18.106Z,216.00
2023-03-21T09:57:18.164Z,212.00
2023-03-21T09:58:18.110Z,216.00
2023-03-21T09:59:18.118Z,212.00
2023-03-21T10:00:18.111Z,212.00
2023-03-21T10:01:18.150Z,212.00
2023-03-21T10:02:18.041Z,216.00
2023-03-21T10:03:18.085Z,216.00
2023-03-21T10:04:18.101Z,220.00
2023-03-21T10:05:18.022Z,220.00
2023-03-21T10:06:17.978Z,220.00
2023-03-21T10:07:17.982Z,216.00
2023-03-21T10:08:18.323Z,212.00
2023-03-21T10:09:18.011Z,204.00
2023-03-21T10:10:17.983Z,200.00
2023-03-21T10:11:17.942Z,196.00
2023-03-21T10:12:17.929Z,192.00
2023-03-21T10:13:17.899Z,196.00
2023-03-21T10:14:17.897Z,196.00
2023-03-21T10:15:17.870Z,192.00
2023-03-21T10:16:17.983Z,192.00
2023-03-21T10:17:17.865Z,196.00
2023-03-21T10:18:17.825Z,204.00
2023-03-21T10:19:17.855Z,216.00
2023-03-21T10:20:17.786Z,240.00
2023-03-21T10:21:37.229Z,264.00
2023-03-21T10:22:17.777Z,296.00
2023-03-21T10:23:17.768Z,340.00
2023-03-21T10:24:17.715Z,376.00
2023-03-21T10:25:17.827Z,412.00
2023-03-21T10:26:19.300Z,440.00
2023-03-21T10:27:17.738Z,448.00
2023-03-21T10:28:17.703Z,460.00
2023-03-21T10:29:17.715Z,472.00
2023-03-21T10:30:17.644Z,472.00
2023-03-21T10:31:17.769Z,484.00
2023-03-21T10:32:17.640Z,488.00
2023-03-21T10:33:17.778Z,500.00
2023-03-21T10:34:17.592Z,516.00
2023-03-21T10:35:17.662Z,512.00
2023-03-21T10:36:17.631Z,516.00
2023-03-21T10:37:17.628Z,500.00
2023-03-21T10:38:17.571Z,492.00
2023-03-21T10:39:17.551Z,496.00
2023-03-21T10:40:17.604Z,496.00
2023-03-21T10:41:17.517Z,496.00
2023-03-21T10:42:17.549Z,516.00
2023-03-21T10:43:17.516Z,520.00
2023-03-21T10:44:17.475Z,516.00
2023-03-21T10:45:17.491Z,508.00
2023-03-21T10:46:17.675Z,488.00
2023-03-21T10:47:17.777Z,472.00
2023-03-21T10:48:17.600Z,460.00
2023-03-21T10:49:17.415Z,452.00
2023-03-21T10:50:17.427Z,440.00
2023-03-21T10:51:17.403Z,436.00
2023-03-21T10:52:17.393Z,424.00
2023-03-21T10:53:17.399Z,412.00
2023-03-21T10:54:17.348Z,408.00
2023-03-21T10:55:17.339Z,404.00
2023-03-21T10:56:17.298Z,404.00
2023-03-21T10:57:17.361Z,404.00
2023-03-21T10:58:17.315Z,404.00
2023-03-21T10:59:18.831Z,404.00
2023-03-21T11:00:17.284Z,396.00
2023-03-21T11:01:17.377Z,404.00
2023-03-21T11:02:17.245Z,412.00
2023-03-21T11:03:17.275Z,420.00
2023-03-21T11:04:17.220Z,424.00
2023-03-21T11:05:19.455Z,444.00
2023-03-21T11:06:17.214Z,464.00
2023-03-21T11:07:17.183Z,468.00
2023-03-21T11:08:17.199Z,508.00
2023-03-21T11:09:17.203Z,528.00
2023-03-21T11:10:26.487Z,536.00
2023-03-21T11:11:18.264Z,584.00
2023-03-21T11:12:17.164Z,560.00
2023-03-21T11:13:17.103Z,540.00
2023-03-21T11:14:17.118Z,544.00
2023-03-21T11:15:17.067Z,556.00
2023-03-21T11:16:17.145Z,568.00
2023-03-21T11:17:17.065Z,576.00
2023-03-21T11:18:17.100Z,604.00
2023-03-21T11:19:17.064Z,668.00
2023-03-21T11:20:17.201Z,660.00
2023-03-21T11:21:16.976Z,660.00
2023-03-21T11:22:17.027Z,632.00
2023-03-21T11:23:18.704Z,572.00
2023-03-21T11:24:16.989Z,556.00
2023-03-21T11:25:16.930Z,520.00
2023-03-21T11:26:16.980Z,496.00
2023-03-21T11:27:16.892Z,496.00
2023-03-21T11:28:16.907Z,480.00
2023-03-21T11:29:18.314Z,476.00
2023-03-21T11:30:16.888Z,452.00
2023-03-21T11:31:16.969Z,452.00
2023-03-21T11:32:16.862Z,444.00
2023-03-21T11:33:16.817Z,460.00
2023-03-21T11:34:16.872Z,460.00
2023-03-21T11:35:18.856Z,448.00
2023-03-21T11:36:16.860Z,436.00
2023-03-21T11:37:16.762Z,436.00
2023-03-21T11:38:16.781Z,416.00
2023-03-21T11:39:16.744Z,420.00
2023-03-21T11:40:16.888Z,408.00
2023-03-21T11:41:18.459Z,416.00
2023-03-21T11:42:16.740Z,412.00
2023-03-21T11:43:16.708Z,420.00
2023-03-21T11:44:16.713Z,424.00
2023-03-21T11:45:16.705Z,416.00
2023-03-21T11:46:16.799Z,396.00
2023-03-21T11:47:16.642Z,384.00
2023-03-21T11:48:16.710Z,384.00
2023-03-21T11:49:16.618Z,388.00
2023-03-21T11:50:16.641Z,392.00
2023-03-21T11:51:16.584Z,392.00
2023-03-21T11:52:16.622Z,396.00
2023-03-21T11:53:16.550Z,400.00
2023-03-21T11:54:16.598Z,400.00
2023-03-21T11:55:16.552Z,396.00
2023-03-21T11:56:16.555Z,392.00
2023-03-21T11:57:16.548Z,384.00
2023-03-21T11:58:16.515Z,380.00
2023-03-21T11:59:16.502Z,380.00
2023-03-21T12:00:16.581Z,372.00
2023-03-21T12:01:16.531Z,372.00
2023-03-21T12:02:16.586Z,376.00
2023-03-21T12:03:16.425Z,368.00
2023-03-21T12:04:16.485Z,372.00
2023-03-21T12:05:16.396Z,364.00
2023-03-21T12:06:17.078Z,368.00
2023-03-21T12:07:17.212Z,368.00
2023-03-21T12:08:16.380Z,372.00
2023-03-21T12:09:17.617Z,372.00
2023-03-21T12:10:16.393Z,380.00
2023-03-21T12:11:16.328Z,384.00
2023-03-21T12:12:16.789Z,392.00
2023-03-21T12:13:16.310Z,400.00
2023-03-21T12:14:16.329Z,392.00
2023-03-21T12:15:16.279Z,392.00
2023-03-21T12:16:16.343Z,388.00
2023-03-21T12:17:16.257Z,388.00
2023-03-21T12:18:16.280Z,392.00
2023-03-21T12:19:16.262Z,388.00
2023-03-21T12:20:16.254Z,376.00
2023-03-21T12:21:16.201Z,372.00
2023-03-21T12:22:16.207Z,376.00
2023-03-21T12:23:16.286Z,368.00
2023-03-21T12:24:16.177Z,368.00
2023-03-21T12:25:16.177Z,372.00
2023-03-21T12:26:16.121Z,364.00
2023-03-21T12:27:16.145Z,356.00
2023-03-21T12:28:21.315Z,356.00
2023-03-21T12:29:16.128Z,352.00
2023-03-21T12:30:16.100Z,356.00
2023-03-21T12:31:16.111Z,348.00
2023-03-21T12:32:16.061Z,344.00
2023-03-21T12:33:16.093Z,336.00
2023-03-21T12:34:16.024Z,332.00
2023-03-21T12:35:16.054Z,336.00
2023-03-21T12:36:16.014Z,332.00
2023-03-21T12:37:16.030Z,336.00
2023-03-21T12:38:15.975Z,336.00
2023-03-21T12:39:15.983Z,332.00
2023-03-21T12:40:15.949Z,332.00
2023-03-21T12:41:15.964Z,336.00
2023-03-21T12:42:15.929Z,332.00
2023-03-21T12:43:15.966Z,332.00
2023-03-21T12:44:15.876Z,328.00
2023-03-21T12:45:16.162Z,324.00
2023-03-21T12:46:15.880Z,328.00
2023-03-21T12:47:15.898Z,328.00
2023-03-21T12:48:15.897Z,328.00
2023-03-21T12:49:15.876Z,320.00
2023-03-21T12:50:15.913Z,316.00
2023-03-21T12:51:15.833Z,312.00